Albuquerque, NM

6:54 PM MDT on March 29, 2015 (GMT -0600)
UNM Area West | | Change Station
CLOSE
Current Station
Personal Weather Station
Location: Albuquerque, NM
Elevation: 5133 ft
Nearby Weather Stations

Elev 5133 ft 35.09 °N, 106.63 °W | Updated 46 seconds ago

Partly Cloudy
Partly Cloudy
76.7 °F
Feels Like 76 °F
N
5.0
Wind Variable Wind from East
Gusts 8.0 mph

Today
High -- | Low -- °F
--% Chance of Precip.
Yesterday
High -- | Low -- °F
Precip. -- in
6:57 AM 7:25 PM
Waxing Gibbous, 75% visible
Pressure 29.96 in
Visibility 10.0 miles
Clouds Few 9000 ft
Mostly Cloudy 20000 ft
Heat Index 76 °F
Dew Point 14 °F
Humidity 9%
Rainfall 0.00 in
Snow Depth Not available.
UV 0 out of 12
Pollen 10.80 out of 12
Air Quality Not available.
Flu Activity Not available.
METAR KABQ 300052Z 12009KT 10SM FEW090 BKN200 23/M09 A3013 RMK AO2 SLP144 VIRGA T02331094

More Conditions Fewer Conditions

Pressure 29.96 in
Visibility 10.0 miles
Clouds Few 9000 ft
Mostly Cloudy 20000 ft
Heat Index 76 °F
Dew Point 14 °F
Humidity 9%
Rainfall 0.00 in
Snow Depth Not available.
UV 0 out of 12
Pollen 10.80 out of 12
Air Quality Not available.
Flu Activity Not available.
METAR KABQ 300052Z 12009KT 10SM FEW090 BKN200 23/M09 A3013 RMK AO2 SLP144 VIRGA T02331094

More Conditions Fewer Conditions

10-Day Weather Forecast

Almanac

Astronomy

Mar. 29, 2015 Rise Set
Actual Time
Civil Twilight
Nautical Twilight
Astronomical Twilight
Moon
Length of Visible Light
Length of Day
Tomorrow will be .
, % of the Moon is Illuminated

Today's Extremes

State Highs State Lows

Community

WunderPhotos

Upload Photos

1,809,389 photos uploaded!

WunderBlogs® & News

Nearby

Air Quality

  Air Quality AQ Index Pollutant
Not available.

Snow Depth

Station Depth Elevation

Earthquake Activity

City Distance Mag. Time & Date
Minimum magnitude displayed is 2.5.

Coastal Water Temperatures

Place Temperature

Stations

Nearby Weather Stations

Station Location Temp. Windchill Dew Point Humidity Wind Precip. Elev Updated Type